sensor_id;sensor_type;location;lat;lon;timestamp;pressure;altitude;pressure_sealevel;temperature
78917;BMP280;68315;48.608;11.436;2023-08-24T00:01:25;97492.00;;;19.70
78917;BMP280;68315;48.608;11.436;2023-08-24T00:03:50;97494.78;;;19.70
78917;BMP280;68315;48.608;11.436;2023-08-24T00:06:16;97491.28;;;19.69
78917;BMP280;68315;48.608;11.436;2023-08-24T00:08:41;97489.78;;;19.68
78917;BMP280;68315;48.608;11.436;2023-08-24T00:11:07;97489.66;;;19.66
78917;BMP280;68315;48.608;11.436;2023-08-24T00:13:33;97488.34;;;19.67
78917;BMP280;68315;48.608;11.436;2023-08-24T00:15:58;97481.75;;;19.63
78917;BMP280;68315;48.608;11.436;2023-08-24T00:18:24;97483.63;;;19.60
78917;BMP280;68315;48.608;11.436;2023-08-24T00:20:50;97486.31;;;19.58
78917;BMP280;68315;48.608;11.436;2023-08-24T00:23:16;97487.34;;;19.53
78917;BMP280;68315;48.608;11.436;2023-08-24T00:25:42;97487.47;;;19.46
78917;BMP280;68315;48.608;11.436;2023-08-24T00:28:07;97491.88;;;19.39
78917;BMP280;68315;48.608;11.436;2023-08-24T00:30:33;97488.94;;;19.37
78917;BMP280;68315;48.608;11.436;2023-08-24T00:32:58;97485.28;;;19.35
78917;BMP280;68315;48.608;11.436;2023-08-24T00:35:23;97486.19;;;19.28
78917;BMP280;68315;48.608;11.436;2023-08-24T00:37:49;97488.66;;;19.24
78917;BMP280;68315;48.608;11.436;2023-08-24T00:40:15;97489.81;;;19.21
78917;BMP280;68315;48.608;11.436;2023-08-24T00:42:43;97488.19;;;19.18
78917;BMP280;68315;48.608;11.436;2023-08-24T00:45:10;97484.56;;;19.15
78917;BMP280;68315;48.608;11.436;2023-08-24T00:47:37;97487.78;;;19.12
78917;BMP280;68315;48.608;11.436;2023-08-24T00:50:03;97486.00;;;19.07
78917;BMP280;68315;48.608;11.436;2023-08-24T00:52:31;97487.03;;;19.02
78917;BMP280;68315;48.608;11.436;2023-08-24T00:54:57;97486.13;;;18.99
78917;BMP280;68315;48.608;11.436;2023-08-24T00:57:23;97480.13;;;18.93
78917;BMP280;68315;48.608;11.436;2023-08-24T00:59:49;97488.91;;;18.90
78917;BMP280;68315;48.608;11.436;2023-08-24T01:02:14;97483.19;;;18.88
78917;BMP280;68315;48.608;11.436;2023-08-24T01:04:41;97474.28;;;18.89
78917;BMP280;68315;48.608;11.436;2023-08-24T01:07:08;97486.09;;;18.90
78917;BMP280;68315;48.608;11.436;2023-08-24T01:09:34;97476.31;;;18.89
78917;BMP280;68315;48.608;11.436;2023-08-24T01:12:20;97475.44;;;18.86
78917;BMP280;68315;48.608;11.436;2023-08-24T01:14:58;97473.94;;;18.85
78917;BMP280;68315;48.608;11.436;2023-08-24T01:17:27;97477.16;;;18.82
78917;BMP280;68315;48.608;11.436;2023-08-24T01:19:54;97475.56;;;18.79
78917;BMP280;68315;48.608;11.436;2023-08-24T01:27:36;97484.06;;;18.71
78917;BMP280;68315;48.608;11.436;2023-08-24T01:30:02;97479.78;;;18.70
78917;BMP280;68315;48.608;11.436;2023-08-24T01:32:30;97463.66;;;18.69
78917;BMP280;68315;48.608;11.436;2023-08-24T01:34:57;97468.50;;;18.68
78917;BMP280;68315;48.608;11.436;2023-08-24T01:37:22;97475.22;;;18.65
78917;BMP280;68315;48.608;11.436;2023-08-24T01:39:56;97475.66;;;18.61
78917;BMP280;68315;48.608;11.436;2023-08-24T01:42:27;97465.09;;;18.60
78917;BMP280;68315;48.608;11.436;2023-08-24T01:44:56;97469.78;;;18.57
78917;BMP280;68315;48.608;11.436;2023-08-24T01:47:24;97477.09;;;18.53
78917;BMP280;68315;48.608;11.436;2023-08-24T01:49:50;97472.69;;;18.50
78917;BMP280;68315;48.608;11.436;2023-08-24T01:52:16;97466.06;;;18.45
78917;BMP280;68315;48.608;11.436;2023-08-24T01:54:43;97470.19;;;18.44
78917;BMP280;68315;48.608;11.436;2023-08-24T01:57:08;97470.78;;;18.43
78917;BMP280;68315;48.608;11.436;2023-08-24T01:59:33;97460.22;;;18.41
78917;BMP280;68315;48.608;11.436;2023-08-24T02:01:59;97463.16;;;18.43
78917;BMP280;68315;48.608;11.436;2023-08-24T02:04:24;97461.09;;;18.44
78917;BMP280;68315;48.608;11.436;2023-08-24T02:06:49;97468.00;;;18.43
78917;BMP280;68315;48.608;11.436;2023-08-24T02:09:14;97463.00;;;18.41
78917;BMP280;68315;48.608;11.436;2023-08-24T02:11:40;97451.13;;;18.41
78917;BMP280;68315;48.608;11.436;2023-08-24T02:14:05;97449.66;;;18.40
78917;BMP280;68315;48.608;11.436;2023-08-24T02:16:30;97453.75;;;18.39
78917;BMP280;68315;48.608;11.436;2023-08-24T02:18:56;97448.19;;;18.39
78917;BMP280;68315;48.608;11.436;2023-08-24T02:21:21;97449.53;;;18.38
78917;BMP280;68315;48.608;11.436;2023-08-24T02:23:46;97445.25;;;18.37
78917;BMP280;68315;48.608;11.436;2023-08-24T02:26:12;97452.16;;;18.36
78917;BMP280;68315;48.608;11.436;2023-08-24T02:28:37;97456.97;;;18.35
78917;BMP280;68315;48.608;11.436;2023-08-24T02:31:03;97442.63;;;18.29
78917;BMP280;68315;48.608;11.436;2023-08-24T02:33:30;97450.06;;;18.27
78917;BMP280;68315;48.608;11.436;2023-08-24T02:35:55;97435.28;;;18.24
78917;BMP280;68315;48.608;11.436;2023-08-24T02:38:21;97436.00;;;18.25
78917;BMP280;68315;48.608;11.436;2023-08-24T02:40:46;97438.19;;;18.26
78917;BMP280;68315;48.608;11.436;2023-08-24T02:43:11;97444.19;;;18.23
78917;BMP280;68315;48.608;11.436;2023-08-24T02:45:37;97443.16;;;18.18
78917;BMP280;68315;48.608;11.436;2023-08-24T02:48:03;97443.56;;;18.15
78917;BMP280;68315;48.608;11.436;2023-08-24T02:50:28;97437.09;;;18.12
78917;BMP280;68315;48.608;11.436;2023-08-24T02:52:54;97439.16;;;18.12
78917;BMP280;68315;48.608;11.436;2023-08-24T02:55:19;97437.69;;;18.11
78917;BMP280;68315;48.608;11.436;2023-08-24T02:57:44;97433.44;;;18.10
78917;BMP280;68315;48.608;11.436;2023-08-24T03:00:10;97428.44;;;18.08
78917;BMP280;68315;48.608;11.436;2023-08-24T03:02:38;97429.94;;;18.09
78917;BMP280;68315;48.608;11.436;2023-08-24T03:05:04;97421.41;;;18.07
78917;BMP280;68315;48.608;11.436;2023-08-24T03:07:29;97435.75;;;18.04
78917;BMP280;68315;48.608;11.436;2023-08-24T03:09:54;97427.84;;;18.00
78917;BMP280;68315;48.608;11.436;2023-08-24T03:12:20;97427.66;;;17.98
78917;BMP280;68315;48.608;11.436;2023-08-24T03:14:45;97432.34;;;17.96
78917;BMP280;68315;48.608;11.436;2023-08-24T03:17:11;97437.94;;;17.96
78917;BMP280;68315;48.608;11.436;2023-08-24T03:19:36;97430.88;;;17.95
78917;BMP280;68315;48.608;11.436;2023-08-24T03:22:01;97436.44;;;17.95
78917;BMP280;68315;48.608;11.436;2023-08-24T03:24:27;97439.81;;;17.93
78917;BMP280;68315;48.608;11.436;2023-08-24T03:26:52;97427.94;;;17.93
78917;BMP280;68315;48.608;11.436;2023-08-24T03:29:18;97434.25;;;17.93
78917;BMP280;68315;48.608;11.436;2023-08-24T03:31:43;97438.47;;;17.94
78917;BMP280;68315;48.608;11.436;2023-08-24T03:34:08;97438.34;;;17.92
78917;BMP280;68315;48.608;11.436;2023-08-24T03:36:33;97440.97;;;17.90
78917;BMP280;68315;48.608;11.436;2023-08-24T03:38:59;97435.81;;;17.87
78917;BMP280;68315;48.608;11.436;2023-08-24T03:41:24;97438.59;;;17.87
78917;BMP280;68315;48.608;11.436;2023-08-24T03:43:49;97432.88;;;17.85
78917;BMP280;68315;48.608;11.436;2023-08-24T03:46:14;97433.31;;;17.81
78917;BMP280;68315;48.608;11.436;2023-08-24T03:48:40;97435.34;;;17.81
78917;BMP280;68315;48.608;11.436;2023-08-24T03:51:05;97441.63;;;17.81
78917;BMP280;68315;48.608;11.436;2023-08-24T03:53:30;97440.34;;;17.82
78917;BMP280;68315;48.608;11.436;2023-08-24T03:55:57;97436.81;;;17.82
78917;BMP280;68315;48.608;11.436;2023-08-24T03:58:22;97434.03;;;17.82
78917;BMP280;68315;48.608;11.436;2023-08-24T04:00:49;97438.13;;;17.81
78917;BMP280;68315;48.608;11.436;2023-08-24T04:03:14;97441.47;;;17.79
78917;BMP280;68315;48.608;11.436;2023-08-24T04:05:39;97447.03;;;17.79
78917;BMP280;68315;48.608;11.436;2023-08-24T04:08:05;97445.59;;;17.78
78917;BMP280;68315;48.608;11.436;2023-08-24T04:10:30;97444.09;;;17.77
78917;BMP280;68315;48.608;11.436;2023-08-24T04:12:56;97442.06;;;17.78
78917;BMP280;68315;48.608;11.436;2023-08-24T04:15:21;97449.50;;;17.75
78917;BMP280;68315;48.608;11.436;2023-08-24T04:17:48;97449.38;;;17.73
78917;BMP280;68315;48.608;11.436;2023-08-24T04:20:13;97453.28;;;17.70
78917;BMP280;68315;48.608;11.436;2023-08-24T04:22:38;97455.31;;;17.70
78917;BMP280;68315;48.608;11.436;2023-08-24T04:25:04;97445.69;;;17.71
78917;BMP280;68315;48.608;11.436;2023-08-24T04:27:29;97442.31;;;17.72
78917;BMP280;68315;48.608;11.436;2023-08-24T04:29:54;97445.25;;;17.74
78917;BMP280;68315;48.608;11.436;2023-08-24T04:32:20;97430.78;;;17.76
78917;BMP280;68315;48.608;11.436;2023-08-24T04:34:45;97431.53;;;17.76
78917;BMP280;68315;48.608;11.436;2023-08-24T04:37:10;97431.94;;;17.73
78917;BMP280;68315;48.608;11.436;2023-08-24T04:39:36;97432.31;;;17.69
78917;BMP280;68315;48.608;11.436;2023-08-24T04:42:01;97429.56;;;17.69
78917;BMP280;68315;48.608;11.436;2023-08-24T04:44:27;97437.34;;;17.71
78917;BMP280;68315;48.608;11.436;2023-08-24T04:46:53;97431.94;;;17.73
78917;BMP280;68315;48.608;11.436;2023-08-24T04:49:18;97425.78;;;17.74
78917;BMP280;68315;48.608;11.436;2023-08-24T04:51:43;97429.47;;;17.77
78917;BMP280;68315;48.608;11.436;2023-08-24T04:54:08;97431.81;;;17.80
78917;BMP280;68315;48.608;11.436;2023-08-24T04:56:34;97436.41;;;17.85
78917;BMP280;68315;48.608;11.436;2023-08-24T04:59:00;97431.56;;;17.86
78917;BMP280;68315;48.608;11.436;2023-08-24T05:01:27;97425.44;;;17.87
78917;BMP280;68315;48.608;11.436;2023-08-24T05:03:53;97415.19;;;17.90
78917;BMP280;68315;48.608;11.436;2023-08-24T05:06:19;97421.50;;;17.90
78917;BMP280;68315;48.608;11.436;2023-08-24T05:08:44;97423.53;;;17.90
78917;BMP280;68315;48.608;11.436;2023-08-24T05:11:12;97430.41;;;17.89
78917;BMP280;68315;48.608;11.436;2023-08-24T05:13:38;97424.28;;;17.90
78917;BMP280;68315;48.608;11.436;2023-08-24T05:16:03;97424.44;;;17.92
78917;BMP280;68315;48.608;11.436;2023-08-24T05:18:29;97413.63;;;17.96
78917;BMP280;68315;48.608;11.436;2023-08-24T05:20:54;97425.94;;;18.03
78917;BMP280;68315;48.608;11.436;2023-08-24T05:23:19;97423.34;;;18.05
78917;BMP280;68315;48.608;11.436;2023-08-24T05:25:45;97416.59;;;18.08
78917;BMP280;68315;48.608;11.436;2023-08-24T05:28:10;97410.94;;;18.15
78917;BMP280;68315;48.608;11.436;2023-08-24T05:30:35;97404.66;;;18.24
78917;BMP280;68315;48.608;11.436;2023-08-24T05:33:00;97412.28;;;18.33
78917;BMP280;68315;48.608;11.436;2023-08-24T05:35:26;97418.47;;;18.41
78917;BMP280;68315;48.608;11.436;2023-08-24T05:37:52;97412.66;;;18.47
78917;BMP280;68315;48.608;11.436;2023-08-24T05:40:17;97421.75;;;18.57
78917;BMP280;68315;48.608;11.436;2023-08-24T05:42:43;97423.94;;;18.68
78917;BMP280;68315;48.608;11.436;2023-08-24T05:45:08;97414.28;;;18.79
78917;BMP280;68315;48.608;11.436;2023-08-24T05:47:34;97415.91;;;18.91
78917;BMP280;68315;48.608;11.436;2023-08-24T05:49:59;97423.25;;;19.06
78917;BMP280;68315;48.608;11.436;2023-08-24T05:52:24;97424.13;;;19.18
78917;BMP280;68315;48.608;11.436;2023-08-24T05:54:49;97419.56;;;19.32
78917;BMP280;68315;48.608;11.436;2023-08-24T05:57:15;97420.88;;;19.50
78917;BMP280;68315;48.608;11.436;2023-08-24T05:59:41;97425.97;;;19.63
78917;BMP280;68315;48.608;11.436;2023-08-24T06:02:06;97421.09;;;19.73
78917;BMP280;68315;48.608;11.436;2023-08-24T06:04:31;97416.50;;;19.87
78917;BMP280;68315;48.608;11.436;2023-08-24T06:06:56;97422.34;;;20.01
78917;BMP280;68315;48.608;11.436;2023-08-24T06:09:22;97415.72;;;20.06
78917;BMP280;68315;48.608;11.436;2023-08-24T06:11:47;97412.31;;;20.07
78917;BMP280;68315;48.608;11.436;2023-08-24T06:14:12;97405.38;;;20.18
78917;BMP280;68315;48.608;11.436;2023-08-24T06:16:37;97402.06;;;20.31
78917;BMP280;68315;48.608;11.436;2023-08-24T06:19:03;97409.31;;;20.45
78917;BMP280;68315;48.608;11.436;2023-08-24T06:21:29;97410.38;;;20.61
78917;BMP280;68315;48.608;11.436;2023-08-24T06:23:54;97413.53;;;20.77
78917;BMP280;68315;48.608;11.436;2023-08-24T06:26:19;97413.84;;;20.92
78917;BMP280;68315;48.608;11.436;2023-08-24T06:28:44;97407.09;;;21.07
78917;BMP280;68315;48.608;11.436;2023-08-24T06:31:10;97408.84;;;21.24
78917;BMP280;68315;48.608;11.436;2023-08-24T06:33:36;97406.22;;;21.37
78917;BMP280;68315;48.608;11.436;2023-08-24T06:36:03;97401.50;;;21.51
78917;BMP280;68315;48.608;11.436;2023-08-24T06:38:30;97414.41;;;21.68
78917;BMP280;68315;48.608;11.436;2023-08-24T06:40:55;97395.59;;;21.80
78917;BMP280;68315;48.608;11.436;2023-08-24T06:43:22;97408.50;;;21.96
78917;BMP280;68315;48.608;11.436;2023-08-24T06:45:47;97406.78;;;22.14
78917;BMP280;68315;48.608;11.436;2023-08-24T06:48:12;97400.16;;;22.33
78917;BMP280;68315;48.608;11.436;2023-08-24T06:50:38;97400.63;;;22.52
78917;BMP280;68315;48.608;11.436;2023-08-24T06:53:04;97398.88;;;22.71
78917;BMP280;68315;48.608;11.436;2023-08-24T06:55:29;97405.28;;;22.85
78917;BMP280;68315;48.608;11.436;2023-08-24T06:57:55;97408.03;;;22.96
78917;BMP280;68315;48.608;11.436;2023-08-24T07:00:21;97401.63;;;23.07
78917;BMP280;68315;48.608;11.436;2023-08-24T07:02:47;97390.38;;;23.19
78917;BMP280;68315;48.608;11.436;2023-08-24T07:05:13;97384.13;;;23.20
78917;BMP280;68315;48.608;11.436;2023-08-24T07:07:38;97393.47;;;23.25
78917;BMP280;68315;48.608;11.436;2023-08-24T07:10:03;97393.13;;;23.30
78917;BMP280;68315;48.608;11.436;2023-08-24T07:12:29;97393.31;;;23.34
78917;BMP280;68315;48.608;11.436;2023-08-24T07:14:54;97375.56;;;23.43
78917;BMP280;68315;48.608;11.436;2023-08-24T07:17:19;97375.50;;;23.55
78917;BMP280;68315;48.608;11.436;2023-08-24T07:19:45;97373.22;;;23.65
78917;BMP280;68315;48.608;11.436;2023-08-24T07:24:36;97375.31;;;23.91
78917;BMP280;68315;48.608;11.436;2023-08-24T07:27:02;97365.34;;;24.02
78917;BMP280;68315;48.608;11.436;2023-08-24T07:29:28;97364.88;;;24.21
78917;BMP280;68315;48.608;11.436;2023-08-24T07:31:53;97353.59;;;24.35
78917;BMP280;68315;48.608;11.436;2023-08-24T07:34:19;97355.03;;;24.49
78917;BMP280;68315;48.608;11.436;2023-08-24T07:36:44;97359.78;;;24.60
78917;BMP280;68315;48.608;11.436;2023-08-24T07:39:11;97359.22;;;24.77
78917;BMP280;68315;48.608;11.436;2023-08-24T07:41:37;97350.19;;;24.94
78917;BMP280;68315;48.608;11.436;2023-08-24T07:44:03;97343.16;;;25.09
78917;BMP280;68315;48.608;11.436;2023-08-24T07:46:28;97338.78;;;25.21
78917;BMP280;68315;48.608;11.436;2023-08-24T07:48:53;97347.16;;;25.35
78917;BMP280;68315;48.608;11.436;2023-08-24T07:51:19;97342.22;;;25.51
78917;BMP280;68315;48.608;11.436;2023-08-24T07:53:44;97340.84;;;25.67
78917;BMP280;68315;48.608;11.436;2023-08-24T07:56:09;97343.75;;;25.85
78917;BMP280;68315;48.608;11.436;2023-08-24T07:58:35;97336.59;;;26.00
78917;BMP280;68315;48.608;11.436;2023-08-24T08:01:01;97338.66;;;26.15
78917;BMP280;68315;48.608;11.436;2023-08-24T08:03:26;97339.31;;;26.31
78917;BMP280;68315;48.608;11.436;2023-08-24T08:05:52;97334.22;;;26.45
78917;BMP280;68315;48.608;11.436;2023-08-24T08:08:17;97339.09;;;26.60
78917;BMP280;68315;48.608;11.436;2023-08-24T08:10:43;97343.16;;;26.74
78917;BMP280;68315;48.608;11.436;2023-08-24T08:13:08;97338.00;;;26.86
78917;BMP280;68315;48.608;11.436;2023-08-24T08:15:36;97338.38;;;26.96
78917;BMP280;68315;48.608;11.436;2023-08-24T08:18:03;97345.13;;;27.07
78917;BMP280;68315;48.608;11.436;2023-08-24T08:20:29;97347.03;;;27.20
78917;BMP280;68315;48.608;11.436;2023-08-24T08:22:54;97353.28;;;27.36
78917;BMP280;68315;48.608;11.436;2023-08-24T08:25:20;97349.66;;;27.53
78917;BMP280;68315;48.608;11.436;2023-08-24T08:27:47;97340.44;;;27.72
78917;BMP280;68315;48.608;11.436;2023-08-24T08:30:13;97347.44;;;27.90
78917;BMP280;68315;48.608;11.436;2023-08-24T08:32:38;97344.22;;;28.00
78917;BMP280;68315;48.608;11.436;2023-08-24T08:35:04;97335.19;;;28.04
78917;BMP280;68315;48.608;11.436;2023-08-24T08:37:32;97342.78;;;27.99
78917;BMP280;68315;48.608;11.436;2023-08-24T08:39:58;97332.81;;;27.96
78917;BMP280;68315;48.608;11.436;2023-08-24T08:42:23;97335.44;;;27.90
78917;BMP280;68315;48.608;11.436;2023-08-24T08:44:48;97328.38;;;27.91
78917;BMP280;68315;48.608;11.436;2023-08-24T08:47:15;97339.25;;;27.99
78917;BMP280;68315;48.608;11.436;2023-08-24T08:49:42;97327.16;;;28.18
78917;BMP280;68315;48.608;11.436;2023-08-24T08:52:08;97329.59;;;28.49
78917;BMP280;68315;48.608;11.436;2023-08-24T08:54:34;97328.03;;;28.67
78917;BMP280;68315;48.608;11.436;2023-08-24T08:57:00;97327.53;;;28.75
78917;BMP280;68315;48.608;11.436;2023-08-24T08:59:27;97322.50;;;28.71
78917;BMP280;68315;48.608;11.436;2023-08-24T09:01:56;97322.97;;;28.64
78917;BMP280;68315;48.608;11.436;2023-08-24T09:04:22;97315.38;;;28.47
78917;BMP280;68315;48.608;11.436;2023-08-24T09:06:48;97317.06;;;28.32
78917;BMP280;68315;48.608;11.436;2023-08-24T09:09:14;97312.03;;;28.31
78917;BMP280;68315;48.608;11.436;2023-08-24T09:11:40;97317.59;;;28.50
78917;BMP280;68315;48.608;11.436;2023-08-24T09:14:07;97316.19;;;28.73
78917;BMP280;68315;48.608;11.436;2023-08-24T09:16:32;97314.72;;;28.95
78917;BMP280;68315;48.608;11.436;2023-08-24T09:18:58;97315.38;;;29.17
78917;BMP280;68315;48.608;11.436;2023-08-24T09:21:23;97310.25;;;29.37
78917;BMP280;68315;48.608;11.436;2023-08-24T09:23:53;97301.63;;;29.59
78917;BMP280;68315;48.608;11.436;2023-08-24T09:26:30;97298.56;;;29.78
78917;BMP280;68315;48.608;11.436;2023-08-24T09:28:56;97292.34;;;29.84
78917;BMP280;68315;48.608;11.436;2023-08-24T09:31:35;97290.63;;;30.00
78917;BMP280;68315;48.608;11.436;2023-08-24T09:34:01;97279.84;;;30.22
78917;BMP280;68315;48.608;11.436;2023-08-24T09:36:26;97276.00;;;30.41
78917;BMP280;68315;48.608;11.436;2023-08-24T09:38:51;97278.56;;;30.61
78917;BMP280;68315;48.608;11.436;2023-08-24T09:41:17;97269.66;;;30.77
78917;BMP280;68315;48.608;11.436;2023-08-24T09:43:42;97270.44;;;30.81
78917;BMP280;68315;48.608;11.436;2023-08-24T09:46:08;97270.66;;;30.91
78917;BMP280;68315;48.608;11.436;2023-08-24T09:48:33;97261.03;;;31.08
78917;BMP280;68315;48.608;11.436;2023-08-24T09:51:01;97256.47;;;31.29
78917;BMP280;68315;48.608;11.436;2023-08-24T09:53:28;97256.59;;;31.35
78917;BMP280;68315;48.608;11.436;2023-08-24T09:56:00;97252.56;;;31.48
78917;BMP280;68315;48.608;11.436;2023-08-24T09:58:27;97255.56;;;31.58
78917;BMP280;68315;48.608;11.436;2023-08-24T10:00:52;97257.22;;;31.73
78917;BMP280;68315;48.608;11.436;2023-08-24T10:03:20;97258.16;;;31.85
78917;BMP280;68315;48.608;11.436;2023-08-24T10:05:51;97245.53;;;31.96
78917;BMP280;68315;48.608;11.436;2023-08-24T10:08:21;97247.78;;;32.06
78917;BMP280;68315;48.608;11.436;2023-08-24T10:10:52;97237.31;;;32.18
78917;BMP280;68315;48.608;11.436;2023-08-24T10:13:23;97236.72;;;32.28
78917;BMP280;68315;48.608;11.436;2023-08-24T10:15:51;97233.22;;;32.33
78917;BMP280;68315;48.608;11.436;2023-08-24T10:18:18;97239.78;;;32.44
78917;BMP280;68315;48.608;11.436;2023-08-24T10:20:44;97227.81;;;32.51
78917;BMP280;68315;48.608;11.436;2023-08-24T10:23:11;97217.16;;;32.54
78917;BMP280;68315;48.608;11.436;2023-08-24T10:25:39;97221.59;;;32.67
78917;BMP280;68315;48.608;11.436;2023-08-24T10:28:05;97225.28;;;32.81
78917;BMP280;68315;48.608;11.436;2023-08-24T10:30:32;97228.28;;;32.95
78917;BMP280;68315;48.608;11.436;2023-08-24T10:32:59;97222.72;;;33.05
78917;BMP280;68315;48.608;11.436;2023-08-24T10:35:25;97222.84;;;33.21
78917;BMP280;68315;48.608;11.436;2023-08-24T10:37:52;97214.44;;;33.37
78917;BMP280;68315;48.608;11.436;2023-08-24T10:40:37;97220.31;;;33.53
78917;BMP280;68315;48.608;11.436;2023-08-24T10:43:09;97209.00;;;33.69
78917;BMP280;68315;48.608;11.436;2023-08-24T10:45:57;97201.28;;;33.94
78917;BMP280;68315;48.608;11.436;2023-08-24T10:48:23;97189.25;;;34.07
78917;BMP280;68315;48.608;11.436;2023-08-24T10:53:40;97179.31;;;34.16
78917;BMP280;68315;48.608;11.436;2023-08-24T10:56:14;97173.63;;;34.22
78917;BMP280;68315;48.608;11.436;2023-08-24T10:58:40;97168.66;;;34.31
78917;BMP280;68315;48.608;11.436;2023-08-24T11:01:05;97165.16;;;34.44
78917;BMP280;68315;48.608;11.436;2023-08-24T11:03:31;97162.31;;;34.60
78917;BMP280;68315;48.608;11.436;2023-08-24T11:05:57;97151.63;;;34.73
78917;BMP280;68315;48.608;11.436;2023-08-24T11:08:49;97143.09;;;34.81
78917;BMP280;68315;48.608;11.436;2023-08-24T11:11:22;97140.25;;;34.89
78917;BMP280;68315;48.608;11.436;2023-08-24T11:14:19;97131.66;;;34.87
78917;BMP280;68315;48.608;11.436;2023-08-24T11:16:47;97128.81;;;34.85
78917;BMP280;68315;48.608;11.436;2023-08-24T11:19:13;97130.25;;;34.94
78917;BMP280;68315;48.608;11.436;2023-08-24T11:21:39;97125.22;;;35.10
78917;BMP280;68315;48.608;11.436;2023-08-24T11:24:05;97115.22;;;35.27
78917;BMP280;68315;48.608;11.436;2023-08-24T11:26:31;97102.31;;;35.48
78917;BMP280;68315;48.608;11.436;2023-08-24T11:28:56;97102.97;;;35.67
78917;BMP280;68315;48.608;11.436;2023-08-24T11:31:23;97107.91;;;35.85
78917;BMP280;68315;48.608;11.436;2023-08-24T11:33:53;97099.97;;;35.99
78917;BMP280;68315;48.608;11.436;2023-08-24T11:36:20;97094.94;;;36.08
78917;BMP280;68315;48.608;11.436;2023-08-24T11:38:45;97100.59;;;36.20
78917;BMP280;68315;48.608;11.436;2023-08-24T11:41:13;97096.94;;;36.33
78917;BMP280;68315;48.608;11.436;2023-08-24T11:43:39;97102.59;;;36.41
78917;BMP280;68315;48.608;11.436;2023-08-24T11:46:04;97106.19;;;36.42
78917;BMP280;68315;48.608;11.436;2023-08-24T11:48:29;97100.41;;;36.46
78917;BMP280;68315;48.608;11.436;2023-08-24T11:50:57;97096.78;;;36.51
78917;BMP280;68315;48.608;11.436;2023-08-24T11:53:22;97110.31;;;36.63
78917;BMP280;68315;48.608;11.436;2023-08-24T11:55:53;97103.81;;;36.72
78917;BMP280;68315;48.608;11.436;2023-08-24T11:58:19;97104.41;;;36.85
78917;BMP280;68315;48.608;11.436;2023-08-24T12:00:45;97110.75;;;36.97
78917;BMP280;68315;48.608;11.436;2023-08-24T12:03:11;97107.78;;;37.11
78917;BMP280;68315;48.608;11.436;2023-08-24T12:05:37;97102.56;;;37.30
78917;BMP280;68315;48.608;11.436;2023-08-24T12:08:03;97102.41;;;37.42
78917;BMP280;68315;48.608;11.436;2023-08-24T12:10:28;97103.16;;;37.40
78917;BMP280;68315;48.608;11.436;2023-08-24T12:13:06;97100.28;;;37.40
78917;BMP280;68315;48.608;11.436;2023-08-24T12:15:36;97098.88;;;37.37
78917;BMP280;68315;48.608;11.436;2023-08-24T12:18:12;97097.50;;;37.34
78917;BMP280;68315;48.608;11.436;2023-08-24T12:20:38;97092.47;;;37.33
78917;BMP280;68315;48.608;11.436;2023-08-24T12:23:05;97090.28;;;37.35
78917;BMP280;68315;48.608;11.436;2023-08-24T12:25:36;97081.59;;;37.43
78917;BMP280;68315;48.608;11.436;2023-08-24T12:28:14;97082.44;;;37.32
78917;BMP280;68315;48.608;11.436;2023-08-24T12:30:51;97075.50;;;37.11
78917;BMP280;68315;48.608;11.436;2023-08-24T12:33:27;97068.56;;;36.90
78917;BMP280;68315;48.608;11.436;2023-08-24T12:35:53;97068.59;;;36.86
78917;BMP280;68315;48.608;11.436;2023-08-24T12:38:19;97060.69;;;36.88
78917;BMP280;68315;48.608;11.436;2023-08-24T12:40:45;97056.25;;;37.01
78917;BMP280;68315;48.608;11.436;2023-08-24T12:43:10;97046.94;;;37.03
78917;BMP280;68315;48.608;11.436;2023-08-24T12:45:35;97042.69;;;36.98
78917;BMP280;68315;48.608;11.436;2023-08-24T12:48:05;97041.84;;;37.07
78917;BMP280;68315;48.608;11.436;2023-08-24T12:50:32;97036.66;;;37.24
78917;BMP280;68315;48.608;11.436;2023-08-24T12:52:58;97036.59;;;37.30
78917;BMP280;68315;48.608;11.436;2023-08-24T12:55:25;97022.19;;;37.36
78917;BMP280;68315;48.608;11.436;2023-08-24T12:57:51;97023.56;;;37.41
78917;BMP280;68315;48.608;11.436;2023-08-24T13:00:17;97026.47;;;37.39
78917;BMP280;68315;48.608;11.436;2023-08-24T13:02:43;97016.41;;;37.38
78917;BMP280;68315;48.608;11.436;2023-08-24T13:05:08;97014.13;;;37.50
78917;BMP280;68315;48.608;11.436;2023-08-24T13:07:33;97026.13;;;37.65
78917;BMP280;68315;48.608;11.436;2023-08-24T13:09:59;97020.91;;;37.77
78917;BMP280;68315;48.608;11.436;2023-08-24T13:12:24;97019.25;;;37.94
78917;BMP280;68315;48.608;11.436;2023-08-24T13:14:50;97011.72;;;38.17
78917;BMP280;68315;48.608;11.436;2023-08-24T13:17:15;97010.72;;;38.33
78917;BMP280;68315;48.608;11.436;2023-08-24T13:19:41;97007.63;;;38.47
78917;BMP280;68315;48.608;11.436;2023-08-24T13:22:06;96993.09;;;38.57
78917;BMP280;68315;48.608;11.436;2023-08-24T13:24:33;96986.69;;;38.54
78917;BMP280;68315;48.608;11.436;2023-08-24T13:26:58;96981.78;;;38.47
78917;BMP280;68315;48.608;11.436;2023-08-24T13:29:24;96976.88;;;38.39
78917;BMP280;68315;48.608;11.436;2023-08-24T13:31:49;96981.09;;;38.44
78917;BMP280;68315;48.608;11.436;2023-08-24T13:34:15;96965.97;;;38.48
78917;BMP280;68315;48.608;11.436;2023-08-24T13:36:40;96969.53;;;38.48
78917;BMP280;68315;48.608;11.436;2023-08-24T13:39:05;96964.63;;;38.43
78917;BMP280;68315;48.608;11.436;2023-08-24T13:41:31;96952.03;;;38.22
78917;BMP280;68315;48.608;11.436;2023-08-24T13:43:56;96955.25;;;38.04
78917;BMP280;68315;48.608;11.436;2023-08-24T13:46:22;96961.53;;;38.14
78917;BMP280;68315;48.608;11.436;2023-08-24T13:48:47;96961.22;;;38.32
78917;BMP280;68315;48.608;11.436;2023-08-24T13:51:12;96956.41;;;38.59
78917;BMP280;68315;48.608;11.436;2023-08-24T13:53:37;96957.44;;;38.82
78917;BMP280;68315;48.608;11.436;2023-08-24T13:56:03;96946.97;;;39.01
78917;BMP280;68315;48.608;11.436;2023-08-24T13:58:28;96937.28;;;39.16
78917;BMP280;68315;48.608;11.436;2023-08-24T14:00:57;96928.41;;;39.28
78917;BMP280;68315;48.608;11.436;2023-08-24T14:03:23;96928.84;;;39.41